sensor_id;sensor_type;location;lat;lon;timestamp;P1;durP1;ratioP1;P2;durP2;ratioP2
63902;SDS011;50072;50.678;13.938;2024-01-11T00:01:08;56.58;;;17.58;;
63902;SDS011;50072;50.678;13.938;2024-01-11T00:03:44;51.72;;;16.40;;
63902;SDS011;50072;50.678;13.938;2024-01-11T00:11:34;90.03;;;23.85;;
63902;SDS011;50072;50.678;13.938;2024-01-11T00:14:08;120.20;;;31.13;;
63902;SDS011;50072;50.678;13.938;2024-01-11T00:16:39;71.82;;;21.98;;
63902;SDS011;50072;50.678;13.938;2024-01-11T00:19:07;79.65;;;20.77;;
63902;SDS011;50072;50.678;13.938;2024-01-11T00:21:34;62.25;;;19.17;;
63902;SDS011;50072;50.678;13.938;2024-01-11T00:24:07;52.13;;;17.42;;
63902;SDS011;50072;50.678;13.938;2024-01-11T00:26:35;57.25;;;17.88;;
63902;SDS011;50072;50.678;13.938;2024-01-11T00:29:08;46.83;;;16.45;;
63902;SDS011;50072;50.678;13.938;2024-01-11T00:31:34;38.47;;;14.85;;
63902;SDS011;50072;50.678;13.938;2024-01-11T00:34:10;62.92;;;18.83;;
63902;SDS011;50072;50.678;13.938;2024-01-11T00:36:38;64.72;;;18.50;;
63902;SDS011;50072;50.678;13.938;2024-01-11T00:39:04;60.95;;;19.90;;
63902;SDS011;50072;50.678;13.938;2024-01-11T00:41:37;69.00;;;20.40;;
63902;SDS011;50072;50.678;13.938;2024-01-11T00:44:05;53.97;;;17.95;;
63902;SDS011;50072;50.678;13.938;2024-01-11T00:46:39;54.88;;;16.05;;
63902;SDS011;50072;50.678;13.938;2024-01-11T00:49:07;54.70;;;17.73;;
63902;SDS011;50072;50.678;13.938;2024-01-11T00:54:06;59.42;;;17.73;;
63902;SDS011;50072;50.678;13.938;2024-01-11T00:56:38;59.83;;;18.08;;
63902;SDS011;50072;50.678;13.938;2024-01-11T00:59:04;46.57;;;16.43;;
63902;SDS011;50072;50.678;13.938;2024-01-11T01:01:36;43.53;;;14.07;;
63902;SDS011;50072;50.678;13.938;2024-01-11T01:04:08;43.90;;;14.02;;
63902;SDS011;50072;50.678;13.938;2024-01-11T01:06:40;59.55;;;18.52;;
63902;SDS011;50072;50.678;13.938;2024-01-11T01:09:08;50.03;;;16.42;;
63902;SDS011;50072;50.678;13.938;2024-01-11T01:11:36;54.60;;;17.85;;
63902;SDS011;50072;50.678;13.938;2024-01-11T01:14:08;59.25;;;17.38;;
63902;SDS011;50072;50.678;13.938;2024-01-11T01:16:39;49.70;;;16.15;;
63902;SDS011;50072;50.678;13.938;2024-01-11T01:19:08;51.70;;;17.38;;
63902;SDS011;50072;50.678;13.938;2024-01-11T01:21:35;54.70;;;15.93;;
63902;SDS011;50072;50.678;13.938;2024-01-11T01:24:06;42.70;;;14.38;;
63902;SDS011;50072;50.678;13.938;2024-01-11T01:26:35;36.83;;;12.15;;
63902;SDS011;50072;50.678;13.938;2024-01-11T01:29:05;45.63;;;15.02;;
63902;SDS011;50072;50.678;13.938;2024-01-11T01:31:38;46.40;;;15.30;;
63902;SDS011;50072;50.678;13.938;2024-01-11T01:34:08;36.90;;;13.73;;
63902;SDS011;50072;50.678;13.938;2024-01-11T01:36:33;40.33;;;12.48;;
63902;SDS011;50072;50.678;13.938;2024-01-11T01:39:05;37.65;;;13.52;;
63902;SDS011;50072;50.678;13.938;2024-01-11T01:41:36;35.13;;;13.05;;
63902;SDS011;50072;50.678;13.938;2024-01-11T01:46:35;39.15;;;13.20;;
63902;SDS011;50072;50.678;13.938;2024-01-11T01:49:01;42.83;;;15.40;;
63902;SDS011;50072;50.678;13.938;2024-01-11T01:51:38;43.78;;;14.50;;
63902;SDS011;50072;50.678;13.938;2024-01-11T01:56:36;47.08;;;14.75;;
63902;SDS011;50072;50.678;13.938;2024-01-11T01:59:09;45.40;;;14.15;;
63902;SDS011;50072;50.678;13.938;2024-01-11T02:01:38;41.63;;;12.95;;
63902;SDS011;50072;50.678;13.938;2024-01-11T02:04:05;34.70;;;11.23;;
63902;SDS011;50072;50.678;13.938;2024-01-11T02:06:38;42.90;;;13.18;;
63902;SDS011;50072;50.678;13.938;2024-01-11T02:09:09;46.95;;;15.45;;
63902;SDS011;50072;50.678;13.938;2024-01-11T02:11:38;52.35;;;14.00;;
63902;SDS011;50072;50.678;13.938;2024-01-11T02:14:05;47.78;;;15.05;;
63902;SDS011;50072;50.678;13.938;2024-01-11T02:16:38;38.22;;;13.98;;
63902;SDS011;50072;50.678;13.938;2024-01-11T02:19:10;40.08;;;12.70;;
63902;SDS011;50072;50.678;13.938;2024-01-11T02:21:38;30.95;;;11.68;;
63902;SDS011;50072;50.678;13.938;2024-01-11T02:24:08;39.08;;;12.27;;
63902;SDS011;50072;50.678;13.938;2024-01-11T02:26:36;38.72;;;12.50;;
63902;SDS011;50072;50.678;13.938;2024-01-11T02:29:08;47.22;;;13.80;;
63902;SDS011;50072;50.678;13.938;2024-01-11T02:31:35;48.17;;;12.35;;
63902;SDS011;50072;50.678;13.938;2024-01-11T02:34:05;45.50;;;13.57;;
63902;SDS011;50072;50.678;13.938;2024-01-11T02:36:30;39.35;;;13.50;;
63902;SDS011;50072;50.678;13.938;2024-01-11T02:39:03;53.53;;;15.65;;
63902;SDS011;50072;50.678;13.938;2024-01-11T02:44:04;44.67;;;13.60;;
63902;SDS011;50072;50.678;13.938;2024-01-11T02:46:38;49.80;;;15.60;;
63902;SDS011;50072;50.678;13.938;2024-01-11T02:49:05;61.85;;;18.15;;
63902;SDS011;50072;50.678;13.938;2024-01-11T02:54:09;58.38;;;17.65;;
63902;SDS011;50072;50.678;13.938;2024-01-11T02:56:40;60.88;;;19.48;;
63902;SDS011;50072;50.678;13.938;2024-01-11T02:59:07;47.05;;;15.88;;
63902;SDS011;50072;50.678;13.938;2024-01-11T03:01:39;43.75;;;15.00;;
63902;SDS011;50072;50.678;13.938;2024-01-11T03:04:06;49.65;;;16.52;;
63902;SDS011;50072;50.678;13.938;2024-01-11T03:06:35;44.17;;;15.45;;
63902;SDS011;50072;50.678;13.938;2024-01-11T03:11:34;69.65;;;20.13;;
63902;SDS011;50072;50.678;13.938;2024-01-11T03:14:08;86.35;;;20.20;;
63902;SDS011;50072;50.678;13.938;2024-01-11T03:16:35;68.50;;;20.42;;
63902;SDS011;50072;50.678;13.938;2024-01-11T03:27:10;74.78;;;19.42;;
63902;SDS011;50072;50.678;13.938;2024-01-11T03:29:38;79.43;;;18.95;;
63902;SDS011;50072;50.678;13.938;2024-01-11T03:32:04;79.50;;;20.65;;
63902;SDS011;50072;50.678;13.938;2024-01-11T03:37:05;55.63;;;17.98;;
63902;SDS011;50072;50.678;13.938;2024-01-11T03:42:04;46.05;;;16.67;;
63902;SDS011;50072;50.678;13.938;2024-01-11T03:44:37;57.22;;;19.70;;
63902;SDS011;50072;50.678;13.938;2024-01-11T03:47:05;59.28;;;17.75;;
63902;SDS011;50072;50.678;13.938;2024-01-11T03:49:38;66.90;;;19.75;;
63902;SDS011;50072;50.678;13.938;2024-01-11T03:52:09;63.80;;;19.45;;
63902;SDS011;50072;50.678;13.938;2024-01-11T03:54:37;73.40;;;22.00;;
63902;SDS011;50072;50.678;13.938;2024-01-11T03:57:09;110.65;;;29.58;;
63902;SDS011;50072;50.678;13.938;2024-01-11T03:59:38;91.18;;;25.00;;
63902;SDS011;50072;50.678;13.938;2024-01-11T04:02:04;79.35;;;24.00;;
63902;SDS011;50072;50.678;13.938;2024-01-11T04:09:38;75.93;;;23.08;;
63902;SDS011;50072;50.678;13.938;2024-01-11T04:14:38;62.80;;;20.38;;
63902;SDS011;50072;50.678;13.938;2024-01-11T04:17:08;56.90;;;17.38;;
63902;SDS011;50072;50.678;13.938;2024-01-11T04:19:40;50.55;;;18.10;;
63902;SDS011;50072;50.678;13.938;2024-01-11T04:24:35;51.95;;;17.40;;
63902;SDS011;50072;50.678;13.938;2024-01-11T04:27:08;59.10;;;18.33;;
63902;SDS011;50072;50.678;13.938;2024-01-11T04:29:35;53.78;;;16.95;;
63902;SDS011;50072;50.678;13.938;2024-01-11T04:32:07;58.53;;;19.33;;
63902;SDS011;50072;50.678;13.938;2024-01-11T04:37:06;48.45;;;15.10;;
63902;SDS011;50072;50.678;13.938;2024-01-11T04:39:35;49.15;;;16.45;;
63902;SDS011;50072;50.678;13.938;2024-01-11T04:42:09;63.17;;;19.42;;
63902;SDS011;50072;50.678;13.938;2024-01-11T04:44:36;58.47;;;19.60;;
63902;SDS011;50072;50.678;13.938;2024-01-11T04:47:03;53.88;;;16.67;;
63902;SDS011;50072;50.678;13.938;2024-01-11T04:49:35;53.50;;;16.60;;
63902;SDS011;50072;50.678;13.938;2024-01-11T04:52:04;40.90;;;14.77;;
63902;SDS011;50072;50.678;13.938;2024-01-11T04:54:36;41.85;;;14.65;;
63902;SDS011;50072;50.678;13.938;2024-01-11T04:57:07;46.17;;;13.93;;
63902;SDS011;50072;50.678;13.938;2024-01-11T04:59:37;46.58;;;14.90;;
63902;SDS011;50072;50.678;13.938;2024-01-11T05:02:04;38.05;;;13.80;;
63902;SDS011;50072;50.678;13.938;2024-01-11T05:04:30;38.92;;;14.25;;
63902;SDS011;50072;50.678;13.938;2024-01-11T05:06:56;42.58;;;13.38;;
63902;SDS011;50072;50.678;13.938;2024-01-11T05:09:22;45.15;;;13.20;;
63902;SDS011;50072;50.678;13.938;2024-01-11T05:11:48;51.67;;;15.30;;
63902;SDS011;50072;50.678;13.938;2024-01-11T05:14:14;50.08;;;16.13;;
63902;SDS011;50072;50.678;13.938;2024-01-11T05:16:41;45.28;;;15.25;;
63902;SDS011;50072;50.678;13.938;2024-01-11T05:19:08;53.92;;;17.10;;
63902;SDS011;50072;50.678;13.938;2024-01-11T05:21:34;64.20;;;17.88;;
63902;SDS011;50072;50.678;13.938;2024-01-11T05:24:01;47.90;;;16.25;;
63902;SDS011;50072;50.678;13.938;2024-01-11T05:26:27;52.65;;;17.50;;
63902;SDS011;50072;50.678;13.938;2024-01-11T05:28:54;51.33;;;15.65;;
63902;SDS011;50072;50.678;13.938;2024-01-11T05:31:21;61.35;;;20.23;;
63902;SDS011;50072;50.678;13.938;2024-01-11T05:33:48;58.85;;;17.80;;
63902;SDS011;50072;50.678;13.938;2024-01-11T05:36:14;57.20;;;17.17;;
63902;SDS011;50072;50.678;13.938;2024-01-11T05:38:42;51.65;;;16.05;;
63902;SDS011;50072;50.678;13.938;2024-01-11T05:41:08;49.85;;;18.08;;
63902;SDS011;50072;50.678;13.938;2024-01-11T05:43:34;59.45;;;19.30;;
63902;SDS011;50072;50.678;13.938;2024-01-11T05:46:02;57.70;;;19.65;;
63902;SDS011;50072;50.678;13.938;2024-01-11T05:48:28;57.70;;;20.45;;
63902;SDS011;50072;50.678;13.938;2024-01-11T05:50:54;49.72;;;18.95;;
63902;SDS011;50072;50.678;13.938;2024-01-11T05:53:20;58.88;;;18.98;;
63902;SDS011;50072;50.678;13.938;2024-01-11T05:55:47;57.60;;;16.88;;
63902;SDS011;50072;50.678;13.938;2024-01-11T05:58:14;43.42;;;15.95;;
63902;SDS011;50072;50.678;13.938;2024-01-11T06:00:39;46.55;;;15.90;;
63902;SDS011;50072;50.678;13.938;2024-01-11T06:03:08;55.58;;;18.25;;
63902;SDS011;50072;50.678;13.938;2024-01-11T06:08:05;52.67;;;17.58;;
63902;SDS011;50072;50.678;13.938;2024-01-11T06:10:31;50.25;;;16.98;;
63902;SDS011;50072;50.678;13.938;2024-01-11T06:13:08;56.53;;;17.08;;
63902;SDS011;50072;50.678;13.938;2024-01-11T06:15:35;55.78;;;17.90;;
63902;SDS011;50072;50.678;13.938;2024-01-11T06:18:01;79.10;;;23.23;;
63902;SDS011;50072;50.678;13.938;2024-01-11T06:20:38;59.63;;;18.38;;
63902;SDS011;50072;50.678;13.938;2024-01-11T06:25:35;65.05;;;19.90;;
63902;SDS011;50072;50.678;13.938;2024-01-11T06:28:10;57.92;;;18.80;;
63902;SDS011;50072;50.678;13.938;2024-01-11T06:30:38;57.13;;;17.55;;
63902;SDS011;50072;50.678;13.938;2024-01-11T06:33:09;56.38;;;19.13;;
63902;SDS011;50072;50.678;13.938;2024-01-11T06:35:35;51.38;;;18.13;;
63902;SDS011;50072;50.678;13.938;2024-01-11T06:38:07;57.00;;;18.13;;
63902;SDS011;50072;50.678;13.938;2024-01-11T06:40:39;56.20;;;19.88;;
63902;SDS011;50072;50.678;13.938;2024-01-11T06:43:05;64.47;;;20.20;;
63902;SDS011;50072;50.678;13.938;2024-01-11T06:45:36;59.35;;;20.70;;
63902;SDS011;50072;50.678;13.938;2024-01-11T06:48:10;64.60;;;23.48;;
63902;SDS011;50072;50.678;13.938;2024-01-11T06:50:38;61.38;;;20.73;;
63902;SDS011;50072;50.678;13.938;2024-01-11T06:53:05;59.75;;;20.15;;
63902;SDS011;50072;50.678;13.938;2024-01-11T06:55:33;66.65;;;21.08;;
63902;SDS011;50072;50.678;13.938;2024-01-11T06:58:08;63.58;;;19.75;;
63902;SDS011;50072;50.678;13.938;2024-01-11T07:00:33;62.00;;;20.05;;
63902;SDS011;50072;50.678;13.938;2024-01-11T07:02:59;58.08;;;19.73;;
63902;SDS011;50072;50.678;13.938;2024-01-11T07:05:25;63.92;;;22.05;;
63902;SDS011;50072;50.678;13.938;2024-01-11T07:07:51;92.47;;;26.27;;
63902;SDS011;50072;50.678;13.938;2024-01-11T07:10:17;77.72;;;23.48;;
63902;SDS011;50072;50.678;13.938;2024-01-11T07:12:42;82.35;;;23.67;;
63902;SDS011;50072;50.678;13.938;2024-01-11T07:15:08;89.03;;;26.15;;
63902;SDS011;50072;50.678;13.938;2024-01-11T07:17:34;76.60;;;23.85;;
63902;SDS011;50072;50.678;13.938;2024-01-11T07:20:01;71.72;;;22.13;;
63902;SDS011;50072;50.678;13.938;2024-01-11T07:22:29;80.38;;;24.42;;
63902;SDS011;50072;50.678;13.938;2024-01-11T07:24:55;80.63;;;23.63;;
63902;SDS011;50072;50.678;13.938;2024-01-11T07:27:21;80.38;;;27.17;;
63902;SDS011;50072;50.678;13.938;2024-01-11T07:29:47;81.80;;;26.20;;
63902;SDS011;50072;50.678;13.938;2024-01-11T07:32:12;82.70;;;27.10;;
63902;SDS011;50072;50.678;13.938;2024-01-11T07:34:38;74.72;;;24.95;;
63902;SDS011;50072;50.678;13.938;2024-01-11T07:37:05;65.07;;;22.60;;
63902;SDS011;50072;50.678;13.938;2024-01-11T07:39:31;58.00;;;22.25;;
63902;SDS011;50072;50.678;13.938;2024-01-11T07:41:58;71.57;;;23.63;;
63902;SDS011;50072;50.678;13.938;2024-01-11T07:44:25;71.40;;;24.35;;
63902;SDS011;50072;50.678;13.938;2024-01-11T07:46:52;84.28;;;25.77;;
63902;SDS011;50072;50.678;13.938;2024-01-11T07:49:19;58.85;;;22.15;;
63902;SDS011;50072;50.678;13.938;2024-01-11T07:51:46;65.80;;;21.70;;
63902;SDS011;50072;50.678;13.938;2024-01-11T07:54:13;72.15;;;23.45;;
63902;SDS011;50072;50.678;13.938;2024-01-11T07:56:39;74.78;;;23.55;;
63902;SDS011;50072;50.678;13.938;2024-01-11T07:59:06;71.68;;;23.73;;
63902;SDS011;50072;50.678;13.938;2024-01-11T08:01:33;72.68;;;24.15;;
63902;SDS011;50072;50.678;13.938;2024-01-11T08:04:01;74.30;;;24.55;;
63902;SDS011;50072;50.678;13.938;2024-01-11T08:06:30;74.50;;;25.73;;
63902;SDS011;50072;50.678;13.938;2024-01-11T08:08:59;85.57;;;28.95;;
63902;SDS011;50072;50.678;13.938;2024-01-11T08:11:26;67.72;;;24.75;;
63902;SDS011;50072;50.678;13.938;2024-01-11T08:13:52;76.88;;;25.15;;
63902;SDS011;50072;50.678;13.938;2024-01-11T08:16:22;74.88;;;24.17;;
63902;SDS011;50072;50.678;13.938;2024-01-11T08:18:49;64.75;;;23.33;;
63902;SDS011;50072;50.678;13.938;2024-01-11T08:21:16;64.47;;;22.73;;
63902;SDS011;50072;50.678;13.938;2024-01-11T08:23:42;107.93;;;36.97;;
63902;SDS011;50072;50.678;13.938;2024-01-11T08:26:14;130.98;;;42.00;;
63902;SDS011;50072;50.678;13.938;2024-01-11T08:28:42;114.72;;;39.22;;
63902;SDS011;50072;50.678;13.938;2024-01-11T08:31:08;124.20;;;38.63;;
63902;SDS011;50072;50.678;13.938;2024-01-11T08:33:34;104.35;;;36.83;;
63902;SDS011;50072;50.678;13.938;2024-01-11T08:36:03;111.65;;;38.92;;
63902;SDS011;50072;50.678;13.938;2024-01-11T08:38:32;95.47;;;35.33;;
63902;SDS011;50072;50.678;13.938;2024-01-11T08:40:59;84.55;;;26.85;;
63902;SDS011;50072;50.678;13.938;2024-01-11T08:43:29;84.55;;;29.85;;
63902;SDS011;50072;50.678;13.938;2024-01-11T08:45:56;90.78;;;30.95;;
63902;SDS011;50072;50.678;13.938;2024-01-11T08:48:24;104.93;;;35.55;;
63902;SDS011;50072;50.678;13.938;2024-01-11T08:50:51;103.90;;;34.22;;
63902;SDS011;50072;50.678;13.938;2024-01-11T08:53:17;83.07;;;29.00;;
63902;SDS011;50072;50.678;13.938;2024-01-11T08:55:44;77.93;;;23.92;;
63902;SDS011;50072;50.678;13.938;2024-01-11T08:58:11;64.78;;;23.02;;
63902;SDS011;50072;50.678;13.938;2024-01-11T09:00:38;59.25;;;21.88;;
63902;SDS011;50072;50.678;13.938;2024-01-11T09:03:04;68.60;;;23.10;;
63902;SDS011;50072;50.678;13.938;2024-01-11T09:05:30;60.22;;;21.55;;
63902;SDS011;50072;50.678;13.938;2024-01-11T09:07:59;61.70;;;24.33;;
63902;SDS011;50072;50.678;13.938;2024-01-11T09:10:26;75.03;;;25.23;;
63902;SDS011;50072;50.678;13.938;2024-01-11T09:12:53;70.22;;;24.83;;
63902;SDS011;50072;50.678;13.938;2024-01-11T09:15:21;64.72;;;24.40;;
63902;SDS011;50072;50.678;13.938;2024-01-11T09:17:49;71.47;;;26.23;;
63902;SDS011;50072;50.678;13.938;2024-01-11T09:20:16;69.40;;;25.83;;
63902;SDS011;50072;50.678;13.938;2024-01-11T09:22:45;72.20;;;27.55;;
63902;SDS011;50072;50.678;13.938;2024-01-11T09:25:12;70.80;;;28.70;;
63902;SDS011;50072;50.678;13.938;2024-01-11T09:27:39;68.13;;;29.80;;
63902;SDS011;50072;50.678;13.938;2024-01-11T09:30:06;76.30;;;28.75;;
63902;SDS011;50072;50.678;13.938;2024-01-11T09:32:33;79.25;;;30.77;;
63902;SDS011;50072;50.678;13.938;2024-01-11T09:34:59;73.00;;;29.00;;
63902;SDS011;50072;50.678;13.938;2024-01-11T09:37:27;64.75;;;25.67;;
63902;SDS011;50072;50.678;13.938;2024-01-11T09:39:53;71.63;;;24.90;;
63902;SDS011;50072;50.678;13.938;2024-01-11T09:42:20;82.47;;;28.23;;
63902;SDS011;50072;50.678;13.938;2024-01-11T09:44:48;75.35;;;25.50;;
63902;SDS011;50072;50.678;13.938;2024-01-11T09:47:15;71.72;;;27.00;;
63902;SDS011;50072;50.678;13.938;2024-01-11T09:49:43;71.20;;;27.23;;
63902;SDS011;50072;50.678;13.938;2024-01-11T09:52:12;80.45;;;28.58;;
63902;SDS011;50072;50.678;13.938;2024-01-11T09:54:40;80.30;;;32.65;;
63902;SDS011;50072;50.678;13.938;2024-01-11T09:57:07;65.40;;;26.42;;
63902;SDS011;50072;50.678;13.938;2024-01-11T09:59:35;63.58;;;27.75;;
63902;SDS011;50072;50.678;13.938;2024-01-11T10:02:02;70.07;;;28.77;;
63902;SDS011;50072;50.678;13.938;2024-01-11T10:04:29;72.40;;;28.67;;
63902;SDS011;50072;50.678;13.938;2024-01-11T10:06:57;71.22;;;29.65;;
63902;SDS011;50072;50.678;13.938;2024-01-11T10:09:24;66.88;;;28.02;;
63902;SDS011;50072;50.678;13.938;2024-01-11T10:11:52;68.43;;;30.80;;
63902;SDS011;50072;50.678;13.938;2024-01-11T10:14:21;68.22;;;30.52;;
63902;SDS011;50072;50.678;13.938;2024-01-11T10:16:48;68.97;;;30.83;;
63902;SDS011;50072;50.678;13.938;2024-01-11T10:19:15;64.32;;;27.52;;
63902;SDS011;50072;50.678;13.938;2024-01-11T10:21:44;56.85;;;25.90;;
63902;SDS011;50072;50.678;13.938;2024-01-11T10:24:16;64.90;;;27.60;;
63902;SDS011;50072;50.678;13.938;2024-01-11T10:26:46;84.30;;;35.80;;
63902;SDS011;50072;50.678;13.938;2024-01-11T10:29:12;76.70;;;29.02;;
63902;SDS011;50072;50.678;13.938;2024-01-11T10:31:39;68.57;;;27.52;;
63902;SDS011;50072;50.678;13.938;2024-01-11T10:34:04;69.90;;;27.55;;
63902;SDS011;50072;50.678;13.938;2024-01-11T10:36:33;65.35;;;26.65;;
63902;SDS011;50072;50.678;13.938;2024-01-11T10:39:08;74.80;;;28.33;;
63902;SDS011;50072;50.678;13.938;2024-01-11T10:41:38;69.00;;;27.50;;
63902;SDS011;50072;50.678;13.938;2024-01-11T10:47:08;100.95;;;34.85;;
63902;SDS011;50072;50.678;13.938;2024-01-11T10:49:36;77.28;;;31.33;;
63902;SDS011;50072;50.678;13.938;2024-01-11T10:52:08;62.45;;;27.75;;
63902;SDS011;50072;50.678;13.938;2024-01-11T10:54:38;58.08;;;22.75;;
63902;SDS011;50072;50.678;13.938;2024-01-11T10:57:08;57.15;;;24.70;;
63902;SDS011;50072;50.678;13.938;2024-01-11T11:02:05;68.30;;;27.40;;
63902;SDS011;50072;50.678;13.938;2024-01-11T11:04:43;62.20;;;26.70;;
63902;SDS011;50072;50.678;13.938;2024-01-11T11:07:13;53.40;;;25.02;;
63902;SDS011;50072;50.678;13.938;2024-01-11T11:09:42;58.05;;;25.08;;
63902;SDS011;50072;50.678;13.938;2024-01-11T11:12:13;54.90;;;24.92;;
63902;SDS011;50072;50.678;13.938;2024-01-11T11:14:51;58.88;;;26.17;;
63902;SDS011;50072;50.678;13.938;2024-01-11T11:20:08;64.32;;;26.20;;
63902;SDS011;50072;50.678;13.938;2024-01-11T11:22:39;62.70;;;26.35;;
63902;SDS011;50072;50.678;13.938;2024-01-11T11:28:08;64.43;;;29.38;;
63902;SDS011;50072;50.678;13.938;2024-01-11T11:33:38;60.38;;;24.92;;
63902;SDS011;50072;50.678;13.938;2024-01-11T11:36:03;57.15;;;24.95;;
63902;SDS011;50072;50.678;13.938;2024-01-11T11:38:35;54.42;;;25.50;;
63902;SDS011;50072;50.678;13.938;2024-01-11T11:41:05;58.17;;;26.00;;
63902;SDS011;50072;50.678;13.938;2024-01-11T11:43:35;38.95;;;19.50;;
63902;SDS011;50072;50.678;13.938;2024-01-11T11:46:07;50.00;;;22.77;;
63902;SDS011;50072;50.678;13.938;2024-01-11T11:53:45;52.72;;;23.08;;
63902;SDS011;50072;50.678;13.938;2024-01-11T11:59:09;42.10;;;18.65;;
63902;SDS011;50072;50.678;13.938;2024-01-11T12:01:38;43.92;;;19.77;;
63902;SDS011;50072;50.678;13.938;2024-01-11T12:04:07;50.22;;;19.83;;
63902;SDS011;50072;50.678;13.938;2024-01-11T12:09:05;44.08;;;19.67;;
63902;SDS011;50072;50.678;13.938;2024-01-11T12:11:37;49.13;;;20.05;;
63902;SDS011;50072;50.678;13.938;2024-01-11T12:14:05;68.18;;;26.70;;
63902;SDS011;50072;50.678;13.938;2024-01-11T12:16:38;65.35;;;27.95;;
63902;SDS011;50072;50.678;13.938;2024-01-11T12:19:06;57.67;;;25.15;;
63902;SDS011;50072;50.678;13.938;2024-01-11T12:21:38;51.28;;;22.55;;
63902;SDS011;50072;50.678;13.938;2024-01-11T12:24:05;59.22;;;23.95;;
63902;SDS011;50072;50.678;13.938;2024-01-11T12:29:05;59.88;;;23.65;;
63902;SDS011;50072;50.678;13.938;2024-01-11T12:31:37;51.25;;;21.48;;
63902;SDS011;50072;50.678;13.938;2024-01-11T12:34:08;55.35;;;23.60;;
63902;SDS011;50072;50.678;13.938;2024-01-11T12:36:35;55.58;;;23.58;;
63902;SDS011;50072;50.678;13.938;2024-01-11T12:39:03;55.50;;;21.52;;
63902;SDS011;50072;50.678;13.938;2024-01-11T12:41:38;51.75;;;20.95;;
63902;SDS011;50072;50.678;13.938;2024-01-11T12:44:10;49.15;;;22.95;;
63902;SDS011;50072;50.678;13.938;2024-01-11T12:46:38;56.55;;;24.13;;
63902;SDS011;50072;50.678;13.938;2024-01-11T12:54:05;45.28;;;20.27;;
63902;SDS011;50072;50.678;13.938;2024-01-11T12:56:40;40.90;;;17.50;;
63902;SDS011;50072;50.678;13.938;2024-01-11T12:59:08;38.85;;;17.13;;
63902;SDS011;50072;50.678;13.938;2024-01-11T13:01:40;47.15;;;18.48;;
63902;SDS011;50072;50.678;13.938;2024-01-11T13:04:09;47.15;;;19.70;;
63902;SDS011;50072;50.678;13.938;2024-01-11T13:06:36;47.78;;;19.83;;
63902;SDS011;50072;50.678;13.938;2024-01-11T13:09:03;39.75;;;16.95;;
63902;SDS011;50072;50.678;13.938;2024-01-11T13:11:35;39.60;;;16.27;;
63902;SDS011;50072;50.678;13.938;2024-01-11T13:14:03;37.42;;;16.08;;
63902;SDS011;50072;50.678;13.938;2024-01-11T13:16:31;36.53;;;16.98;;
63902;SDS011;50072;50.678;13.938;2024-01-11T13:18:58;38.42;;;17.27;;
63902;SDS011;50072;50.678;13.938;2024-01-11T13:21:26;37.38;;;18.13;;
63902;SDS011;50072;50.678;13.938;2024-01-11T13:23:53;37.35;;;17.42;;
63902;SDS011;50072;50.678;13.938;2024-01-11T13:26:19;44.55;;;18.95;;
63902;SDS011;50072;50.678;13.938;2024-01-11T13:28:46;41.60;;;16.67;;
63902;SDS011;50072;50.678;13.938;2024-01-11T13:31:12;37.83;;;16.38;;
63902;SDS011;50072;50.678;13.938;2024-01-11T13:33:39;39.97;;;17.52;;
63902;SDS011;50072;50.678;13.938;2024-01-11T13:36:06;38.45;;;16.02;;
63902;SDS011;50072;50.678;13.938;2024-01-11T13:38:33;29.95;;;14.18;;
63902;SDS011;50072;50.678;13.938;2024-01-11T13:41:00;33.95;;;14.00;;
63902;SDS011;50072;50.678;13.938;2024-01-11T13:43:26;32.83;;;14.32;;
63902;SDS011;50072;50.678;13.938;2024-01-11T13:45:52;33.42;;;14.70;;
63902;SDS011;50072;50.678;13.938;2024-01-11T13:48:21;35.45;;;14.85;;
63902;SDS011;50072;50.678;13.938;2024-01-11T13:50:47;31.67;;;14.07;;
63902;SDS011;50072;50.678;13.938;2024-01-11T13:53:13;37.85;;;15.35;;
63902;SDS011;50072;50.678;13.938;2024-01-11T13:55:40;40.53;;;16.00;;
63902;SDS011;50072;50.678;13.938;2024-01-11T13:58:07;41.08;;;16.73;;
63902;SDS011;50072;50.678;13.938;2024-01-11T14:00:33;38.50;;;16.50;;
63902;SDS011;50072;50.678;13.938;2024-01-11T14:02:59;43.55;;;17.02;;
63902;SDS011;50072;50.678;13.938;2024-01-11T14:05:26;44.72;;;20.23;;
63902;SDS011;50072;50.678;13.938;2024-01-11T14:07:53;69.32;;;27.17;;
63902;SDS011;50072;50.678;13.938;2024-01-11T14:10:26;41.47;;;19.60;;
63902;SDS011;50072;50.678;13.938;2024-01-11T14:12:54;46.55;;;19.08;;
63902;SDS011;50072;50.678;13.938;2024-01-11T14:15:22;38.45;;;16.33;;
63902;SDS011;50072;50.678;13.938;2024-01-11T14:17:47;37.25;;;16.50;;
63902;SDS011;50072;50.678;13.938;2024-01-11T14:20:15;36.08;;;15.68;;
63902;SDS011;50072;50.678;13.938;2024-01-11T14:22:42;45.67;;;17.58;;
63902;SDS011;50072;50.678;13.938;2024-01-11T14:25:16;40.63;;;17.45;;
63902;SDS011;50072;50.678;13.938;2024-01-11T14:27:43;36.78;;;16.73;;
63902;SDS011;50072;50.678;13.938;2024-01-11T14:30:11;42.47;;;16.58;;
63902;SDS011;50072;50.678;13.938;2024-01-11T14:32:39;43.63;;;19.17;;
63902;SDS011;50072;50.678;13.938;2024-01-11T14:35:09;47.55;;;18.85;;
63902;SDS011;50072;50.678;13.938;2024-01-11T14:37:37;47.85;;;19.00;;
63902;SDS011;50072;50.678;13.938;2024-01-11T14:40:05;44.40;;;18.38;;
63902;SDS011;50072;50.678;13.938;2024-01-11T14:42:33;43.03;;;18.67;;
63902;SDS011;50072;50.678;13.938;2024-01-11T14:45:00;49.75;;;18.15;;
63902;SDS011;50072;50.678;13.938;2024-01-11T14:47:26;47.75;;;20.17;;
63902;SDS011;50072;50.678;13.938;2024-01-11T14:49:52;41.28;;;18.90;;
63902;SDS011;50072;50.678;13.938;2024-01-11T14:52:19;49.53;;;20.60;;
63902;SDS011;50072;50.678;13.938;2024-01-11T14:54:46;47.38;;;20.33;;
63902;SDS011;50072;50.678;13.938;2024-01-11T14:57:13;57.35;;;22.05;;
63902;SDS011;50072;50.678;13.938;2024-01-11T14:59:39;55.20;;;21.30;;
63902;SDS011;50072;50.678;13.938;2024-01-11T15:02:07;56.05;;;20.67;;
63902;SDS011;50072;50.678;13.938;2024-01-11T15:04:33;52.88;;;21.92;;
63902;SDS011;50072;50.678;13.938;2024-01-11T15:07:00;59.75;;;24.83;;
63902;SDS011;50072;50.678;13.938;2024-01-11T15:09:26;75.82;;;31.88;;
63902;SDS011;50072;50.678;13.938;2024-01-11T15:11:53;64.10;;;28.95;;
63902;SDS011;50072;50.678;13.938;2024-01-11T15:14:21;68.28;;;29.13;;
63902;SDS011;50072;50.678;13.938;2024-01-11T15:16:47;67.97;;;28.63;;
63902;SDS011;50072;50.678;13.938;2024-01-11T15:19:17;25.98;;;10.05;;
63902;SDS011;50072;50.678;13.938;2024-01-11T15:21:44;50.05;;;17.75;;
63902;SDS011;50072;50.678;13.938;2024-01-11T15:24:11;56.88;;;25.58;;
63902;SDS011;50072;50.678;13.938;2024-01-11T15:26:38;56.60;;;23.25;;
63902;SDS011;50072;50.678;13.938;2024-01-11T15:29:06;33.03;;;13.45;;
63902;SDS011;50072;50.678;13.938;2024-01-11T15:34:09;13.82;;;5.60;;
63902;SDS011;50072;50.678;13.938;2024-01-11T15:36:35;23.38;;;9.15;;
63902;SDS011;50072;50.678;13.938;2024-01-11T15:39:08;21.40;;;8.63;;
63902;SDS011;50072;50.678;13.938;2024-01-11T15:41:35;23.33;;;10.55;;